createdAt,value
2023-01-17T00:01:53.949Z,1.25
2023-01-17T00:04:39.200Z,1.20
2023-01-17T00:07:24.488Z,0.75
2023-01-17T00:09:56.736Z,0.90
2023-01-17T00:12:26.115Z,0.93
2023-01-17T00:14:56.393Z,0.80
2023-01-17T00:17:24.840Z,0.40
2023-01-17T00:20:10.265Z,0.30
2023-01-17T00:22:56.016Z,0.32
2023-01-17T00:25:44.088Z,0.20
2023-01-17T00:28:10.669Z,0.00
2023-01-17T00:30:38.801Z,0.10
2023-01-17T00:33:05.817Z,0.10
2023-01-17T00:35:33.277Z,0.00
2023-01-17T00:38:04.832Z,0.00
2023-01-17T00:40:31.609Z,0.00
2023-01-17T00:43:16.785Z,0.00
2023-01-17T00:46:04.858Z,0.00
2023-01-17T00:48:50.188Z,0.10
2023-01-17T00:51:35.920Z,0.00
2023-01-17T00:54:21.645Z,0.00
2023-01-17T00:57:06.800Z,0.00
2023-01-17T00:59:51.704Z,0.00
2023-01-17T01:02:38.497Z,0.00
2023-01-17T01:05:24.095Z,0.00
2023-01-17T01:08:09.185Z,0.10
2023-01-17T01:10:54.283Z,0.00
2023-01-17T01:13:41.882Z,0.00
2023-01-17T01:16:26.987Z,0.00
2023-01-17T01:19:13.634Z,0.00
2023-01-17T01:21:58.649Z,0.00
2023-01-17T01:24:44.179Z,0.10
2023-01-17T01:27:29.435Z,0.00
2023-01-17T01:30:14.695Z,0.20
2023-01-17T01:32:59.764Z,0.00
2023-01-17T01:35:29.034Z,0.00
2023-01-17T01:37:56.815Z,0.00
2023-01-17T01:40:24.481Z,0.03
2023-01-17T01:42:53.603Z,0.10
2023-01-17T01:45:22.751Z,0.00
2023-01-17T01:47:51.520Z,0.08
2023-01-17T01:50:21.414Z,0.10
2023-01-17T01:52:54.507Z,0.00
2023-01-17T01:55:24.649Z,0.08
2023-01-17T01:57:53.889Z,0.10
2023-01-17T02:00:24.897Z,0.10
2023-01-17T02:02:54.339Z,0.10
2023-01-17T02:05:23.915Z,0.10
2023-01-17T02:07:55.898Z,0.20
2023-01-17T02:10:24.092Z,0.10
2023-01-17T02:12:53.182Z,0.00
2023-01-17T02:15:22.566Z,0.00
2023-01-17T02:17:58.749Z,0.00
2023-01-17T02:20:39.284Z,0.00
2023-01-17T02:23:44.221Z,0.00
2023-01-17T02:26:43.382Z,0.00
2023-01-17T02:29:43.536Z,0.00
2023-01-17T02:32:16.136Z,0.00
2023-01-17T02:34:48.108Z,0.00
2023-01-17T02:37:19.102Z,0.00
2023-01-17T02:39:52.016Z,0.00
2023-01-17T02:42:20.866Z,0.00
2023-01-17T02:44:48.539Z,0.00
2023-01-17T02:47:25.753Z,0.00
2023-01-17T02:49:54.157Z,0.00
2023-01-17T02:52:32.359Z,0.00
2023-01-17T02:55:16.644Z,0.00
2023-01-17T02:57:57.766Z,0.00
2023-01-17T03:00:29.056Z,0.00
2023-01-17T03:03:04.190Z,0.00
2023-01-17T03:05:36.285Z,0.00
2023-01-17T03:08:04.596Z,0.00
2023-01-17T03:10:33.961Z,0.00
2023-01-17T03:13:02.446Z,0.10
2023-01-17T03:15:30.391Z,0.00
2023-01-17T03:18:01.811Z,0.00
2023-01-17T03:20:29.458Z,0.00
2023-01-17T03:22:57.189Z,0.00
2023-01-17T03:25:24.823Z,0.00
2023-01-17T03:27:52.504Z,0.00
2023-01-17T03:30:21.853Z,0.00
2023-01-17T03:32:49.670Z,0.00
2023-01-17T03:35:18.807Z,0.00
2023-01-17T03:37:46.523Z,0.00
2023-01-17T03:40:14.315Z,0.05
2023-01-17T03:42:42.733Z,0.00
2023-01-17T03:45:11.207Z,0.00
2023-01-17T03:47:38.956Z,0.00
2023-01-17T03:50:07.475Z,0.00
2023-01-17T03:52:36.669Z,0.00
2023-01-17T03:55:04.464Z,0.00
2023-01-17T03:57:32.210Z,0.08
2023-01-17T03:59:59.925Z,0.10
2023-01-17T04:02:27.638Z,0.10
2023-01-17T04:04:55.364Z,0.03
2023-01-17T04:07:23.665Z,0.10
2023-01-17T04:09:52.694Z,0.20
2023-01-17T04:12:20.467Z,0.20
2023-01-17T04:14:48.715Z,0.10
2023-01-17T04:17:17.915Z,0.27
2023-01-17T04:19:45.637Z,0.30
2023-01-17T04:22:13.430Z,0.10
2023-01-17T04:24:41.192Z,0.30
2023-01-17T04:27:14.232Z,0.57
2023-01-17T04:29:41.954Z,0.45
2023-01-17T04:32:09.901Z,0.40
2023-01-17T04:34:37.677Z,0.20
2023-01-17T04:37:05.400Z,0.20
2023-01-17T04:39:33.128Z,0.50
2023-01-17T04:42:00.814Z,0.35
2023-01-17T04:44:29.902Z,0.20
2023-01-17T04:46:57.703Z,0.30
2023-01-17T04:49:25.482Z,0.60
2023-01-17T04:51:53.224Z,0.70
2023-01-17T04:54:20.887Z,0.80
2023-01-17T04:56:48.962Z,1.02
2023-01-17T04:59:16.697Z,0.68
2023-01-17T05:01:45.843Z,0.68
2023-01-17T05:04:13.699Z,0.88
2023-01-17T05:06:41.477Z,1.00
2023-01-17T05:09:09.292Z,0.60
2023-01-17T05:11:37.053Z,0.50
2023-01-17T05:14:07.951Z,0.40
2023-01-17T05:16:35.695Z,0.68
2023-01-17T05:19:04.855Z,0.63
2023-01-17T05:21:32.561Z,1.00
2023-01-17T05:24:00.377Z,1.08
2023-01-17T05:26:28.132Z,0.75
2023-01-17T05:28:55.837Z,1.00
2023-01-17T05:31:23.523Z,1.13
2023-01-17T05:33:51.225Z,0.93
2023-01-17T05:36:21.222Z,0.60
2023-01-17T05:38:49.073Z,0.98
2023-01-17T05:41:16.823Z,0.60
2023-01-17T05:43:44.533Z,0.90
2023-01-17T05:46:12.340Z,0.75
2023-01-17T05:48:40.108Z,0.60
2023-01-17T05:51:07.840Z,0.65
2023-01-17T05:53:36.961Z,0.80
2023-01-17T05:56:04.862Z,0.47
2023-01-17T05:58:32.537Z,0.70
2023-01-17T06:01:00.285Z,0.60
2023-01-17T06:03:28.100Z,0.80
2023-01-17T06:05:55.813Z,0.60
2023-01-17T06:08:23.613Z,0.65
2023-01-17T06:10:52.693Z,0.60
2023-01-17T06:13:21.879Z,0.22
2023-01-17T06:15:49.826Z,0.40
2023-01-17T06:18:19.736Z,0.40
2023-01-17T06:20:48.712Z,0.40
2023-01-17T06:23:16.415Z,0.40
2023-01-17T06:25:45.296Z,0.60
2023-01-17T06:28:15.633Z,0.80
2023-01-17T06:30:43.909Z,0.85
2023-01-17T06:33:11.922Z,0.68
2023-01-17T06:35:40.914Z,1.00
2023-01-17T06:38:10.004Z,1.10
2023-01-17T06:40:37.701Z,0.80
2023-01-17T06:43:06.484Z,1.10
2023-01-17T06:45:36.583Z,1.38
2023-01-17T06:48:05.279Z,1.50
2023-01-17T06:50:33.648Z,2.17
2023-01-17T06:53:02.876Z,2.65
2023-01-17T06:55:33.666Z,2.58
2023-01-17T06:58:02.866Z,3.88
2023-01-17T07:00:31.749Z,4.00
2023-01-17T07:03:01.117Z,4.95
2023-01-17T07:05:29.058Z,4.15
2023-01-17T07:07:56.758Z,4.63
2023-01-17T07:10:24.460Z,4.95
2023-01-17T07:12:52.462Z,4.90
2023-01-17T07:15:20.189Z,5.25
2023-01-17T07:17:48.011Z,5.00
2023-01-17T07:20:18.588Z,5.20
2023-01-17T07:22:46.591Z,6.35
2023-01-17T07:25:14.394Z,5.95
2023-01-17T07:27:42.091Z,5.60
2023-01-17T07:30:11.139Z,5.88
2023-01-17T07:32:38.875Z,6.65
2023-01-17T07:35:07.558Z,6.67
2023-01-17T07:37:36.617Z,6.03
2023-01-17T07:40:04.927Z,6.10
2023-01-17T07:42:32.584Z,5.90
2023-01-17T07:45:00.646Z,5.43
2023-01-17T07:47:28.291Z,5.67
2023-01-17T07:49:56.176Z,6.05
2023-01-17T07:52:23.927Z,5.82
2023-01-17T07:54:53.148Z,6.35
2023-01-17T07:57:20.866Z,5.93
2023-01-17T07:59:50.931Z,9.55
2023-01-17T08:02:20.324Z,12.32
2023-01-17T08:04:48.864Z,10.75
2023-01-17T08:07:17.365Z,11.43
2023-01-17T08:09:49.709Z,7.83
2023-01-17T08:12:18.955Z,8.90
2023-01-17T08:14:46.685Z,6.53
2023-01-17T08:17:17.145Z,6.18
2023-01-17T08:19:45.229Z,6.30
2023-01-17T08:22:13.298Z,5.53
2023-01-17T08:24:41.929Z,5.72
2023-01-17T08:27:09.987Z,6.00
2023-01-17T08:29:42.125Z,5.43
2023-01-17T08:32:09.907Z,4.85
2023-01-17T08:34:37.574Z,5.43
2023-01-17T08:37:05.324Z,5.55
2023-01-17T08:39:33.052Z,5.93
2023-01-17T08:42:00.813Z,5.57
2023-01-17T08:44:28.509Z,5.60
2023-01-17T08:46:57.609Z,5.57
2023-01-17T08:49:25.665Z,5.45
2023-01-17T08:51:53.393Z,5.43
2023-01-17T08:54:22.892Z,5.72
2023-01-17T08:56:52.807Z,5.10
2023-01-17T08:59:20.793Z,4.85
2023-01-17T09:01:48.556Z,5.20
2023-01-17T09:04:17.764Z,5.20
2023-01-17T09:06:48.193Z,6.00
2023-01-17T09:09:17.198Z,5.75
2023-01-17T09:11:44.949Z,6.03
2023-01-17T09:14:13.416Z,4.95
2023-01-17T09:16:41.201Z,5.20
2023-01-17T09:19:09.671Z,6.15
2023-01-17T09:21:38.900Z,6.47
2023-01-17T09:24:07.154Z,5.57
2023-01-17T09:26:34.964Z,5.75
2023-01-17T09:29:02.689Z,5.93
2023-01-17T09:31:30.453Z,5.78
2023-01-17T09:33:59.020Z,5.53
2023-01-17T09:36:28.763Z,6.30
2023-01-17T09:38:58.955Z,6.10
2023-01-17T09:41:28.894Z,6.90
2023-01-17T09:44:01.050Z,7.60
2023-01-17T09:46:31.323Z,6.95
2023-01-17T09:49:04.900Z,7.00
2023-01-17T09:51:32.880Z,7.82
2023-01-17T09:54:02.757Z,6.60
2023-01-17T09:56:33.620Z,6.27
2023-01-17T09:59:21.436Z,6.63
2023-01-17T10:01:55.605Z,7.38
2023-01-17T10:04:41.442Z,6.65
2023-01-17T10:07:16.461Z,8.50
2023-01-17T10:09:55.079Z,7.95
2023-01-17T10:12:28.889Z,8.60
2023-01-17T10:15:14.695Z,7.78
2023-01-17T10:17:51.758Z,7.85
2023-01-17T10:20:40.783Z,9.10
2023-01-17T10:23:22.004Z,7.10
2023-01-17T10:25:52.398Z,7.65
2023-01-17T10:28:22.768Z,7.50
2023-01-17T10:30:51.837Z,8.40
2023-01-17T10:33:22.060Z,8.52
2023-01-17T10:35:56.877Z,8.88
2023-01-17T10:38:31.381Z,8.80
2023-01-17T10:41:04.984Z,8.52
2023-01-17T10:43:40.318Z,8.38
2023-01-17T10:46:15.761Z,9.35
2023-01-17T10:48:45.977Z,8.50
2023-01-17T10:51:23.076Z,9.05
2023-01-17T10:54:07.537Z,8.63
2023-01-17T10:56:37.954Z,8.43
2023-01-17T10:59:28.718Z,9.63
2023-01-17T11:01:56.518Z,9.35
2023-01-17T11:04:32.442Z,9.32
2023-01-17T11:07:18.392Z,9.25
2023-01-17T11:09:47.376Z,9.52
2023-01-17T11:12:23.843Z,9.40
2023-01-17T11:15:04.221Z,9.43
2023-01-17T11:17:33.264Z,9.30
2023-01-17T11:20:23.503Z,9.70
2023-01-17T11:23:04.194Z,9.13
2023-01-17T11:25:34.099Z,9.13
2023-01-17T11:28:06.448Z,9.27
2023-01-17T11:30:34.220Z,8.98
2023-01-17T11:33:04.221Z,8.77
2023-01-17T11:35:32.532Z,9.60
2023-01-17T11:38:07.080Z,8.93
2023-01-17T11:40:38.361Z,9.37
2023-01-17T11:43:22.643Z,9.10
2023-01-17T11:46:06.019Z,10.18
2023-01-17T11:48:37.105Z,9.13
2023-01-17T11:51:06.015Z,9.30
2023-01-17T11:53:35.170Z,13.33
2023-01-17T11:56:07.687Z,12.00
2023-01-17T11:58:39.359Z,8.68
2023-01-17T12:01:32.127Z,8.57
2023-01-17T12:04:20.321Z,10.10
2023-01-17T12:06:58.011Z,11.35
2023-01-17T12:09:31.474Z,11.07
2023-01-17T12:12:22.181Z,9.70
2023-01-17T12:15:00.696Z,9.68
2023-01-17T12:17:38.375Z,10.05
2023-01-17T12:20:12.684Z,10.75
2023-01-17T12:23:02.995Z,10.55
2023-01-17T12:25:54.507Z,9.85
2023-01-17T12:28:38.722Z,9.85
2023-01-17T12:31:15.089Z,9.02
2023-01-17T12:33:48.554Z,9.10
2023-01-17T12:36:29.856Z,9.40
2023-01-17T12:38:59.433Z,8.57
2023-01-17T12:41:31.285Z,7.07
2023-01-17T12:44:00.901Z,7.97
2023-01-17T12:46:32.372Z,7.90
2023-01-17T12:49:04.865Z,7.05
2023-01-17T12:51:37.198Z,7.65
2023-01-17T12:54:13.100Z,7.60
2023-01-17T12:56:44.233Z,6.78
2023-01-17T12:59:16.413Z,6.78
2023-01-17T13:01:57.633Z,6.68
2023-01-17T13:04:28.005Z,6.70
2023-01-17T13:07:05.763Z,6.53
2023-01-17T13:09:38.081Z,5.75
2023-01-17T13:12:07.964Z,6.40
2023-01-17T13:14:35.937Z,6.10
2023-01-17T13:17:14.132Z,5.20
2023-01-17T13:19:46.458Z,4.88
2023-01-17T13:22:17.890Z,4.18
2023-01-17T13:24:55.344Z,4.07
2023-01-17T13:27:34.359Z,4.00
2023-01-17T13:30:23.766Z,3.70
2023-01-17T13:33:16.221Z,2.72
2023-01-17T13:35:55.087Z,2.55
2023-01-17T13:38:55.059Z,2.47
2023-01-17T13:41:44.968Z,2.95
2023-01-17T13:44:24.664Z,2.93
2023-01-17T13:47:00.873Z,2.58
2023-01-17T13:49:53.892Z,3.28
2023-01-17T13:52:35.678Z,2.95
2023-01-17T13:55:04.537Z,2.33
2023-01-17T13:57:40.690Z,1.27
2023-01-17T14:00:59.236Z,1.58
2023-01-17T14:04:08.316Z,2.30
2023-01-17T14:06:40.628Z,1.10
2023-01-17T14:09:15.714Z,0.98
2023-01-17T14:11:58.748Z,1.10
2023-01-17T14:14:47.926Z,1.00
2023-01-17T14:17:52.761Z,1.05
2023-01-17T14:20:46.367Z,1.38
2023-01-17T14:23:50.026Z,1.77
2023-01-17T14:26:42.770Z,1.00
2023-01-17T14:29:48.081Z,0.90
2023-01-17T14:32:17.168Z,1.58
2023-01-17T14:34:46.228Z,0.90
2023-01-17T14:37:18.241Z,0.90
2023-01-17T14:39:47.151Z,0.70
2023-01-17T14:42:17.596Z,0.82
2023-01-17T14:44:49.748Z,0.90
2023-01-17T14:47:17.939Z,0.80
2023-01-17T14:49:45.738Z,0.90
2023-01-17T14:52:17.535Z,1.45
2023-01-17T14:54:49.425Z,1.13
2023-01-17T14:57:25.873Z,1.88
2023-01-17T14:59:53.621Z,0.80
2023-01-17T15:02:21.433Z,1.00
2023-01-17T15:04:55.040Z,0.70
2023-01-17T15:07:22.733Z,1.23
2023-01-17T15:09:50.458Z,1.50
2023-01-17T15:12:19.558Z,2.20
2023-01-17T15:14:49.187Z,1.40
2023-01-17T15:17:19.797Z,2.10
2023-01-17T15:19:50.061Z,4.05
2023-01-17T15:22:19.060Z,10.45
2023-01-17T15:24:47.745Z,5.93
2023-01-17T15:27:16.816Z,8.07
2023-01-17T15:29:45.422Z,6.00
2023-01-17T15:32:20.258Z,2.80
2023-01-17T15:36:25.063Z,3.70
2023-01-17T15:38:56.555Z,4.32
2023-01-17T15:41:26.265Z,7.00
2023-01-17T15:43:57.564Z,7.50
2023-01-17T15:46:29.927Z,7.70
2023-01-17T15:49:17.951Z,9.97
2023-01-17T15:51:52.937Z,11.60
2023-01-17T15:54:34.823Z,14.47
2023-01-17T15:57:07.038Z,19.98
2023-01-17T16:01:17.313Z,10.75
2023-01-17T16:03:54.073Z,7.40
2023-01-17T16:06:38.207Z,3.40
2023-01-17T16:09:20.685Z,2.20
2023-01-17T16:11:48.405Z,4.18
2023-01-17T16:14:16.886Z,3.50
2023-01-17T16:16:52.318Z,5.07
2023-01-17T16:19:21.423Z,7.00
2023-01-17T16:21:50.267Z,15.65
2023-01-17T16:24:18.597Z,12.93
2023-01-17T16:26:46.299Z,13.93
2023-01-17T16:29:13.927Z,14.20
2023-01-17T16:31:41.780Z,16.08
2023-01-17T16:34:13.075Z,12.68
2023-01-17T16:36:40.907Z,9.43
2023-01-17T16:39:08.822Z,7.13
2023-01-17T16:42:27.154Z,5.28
2023-01-17T16:44:56.306Z,5.40
2023-01-17T16:47:24.012Z,8.38
2023-01-17T16:49:51.749Z,8.10
2023-01-17T16:52:19.420Z,11.50
2023-01-17T16:54:47.031Z,20.65
2023-01-17T16:57:15.496Z,22.60
2023-01-17T16:59:50.590Z,9.50
2023-01-17T17:02:18.952Z,5.82
